| Station | Date | Time | Temp (°F) | RH (%) | Dew Pt (°F) | Wind Spd (mph) | Wind Dir (°) | Wind Gust (mph) | Wind Gst Dir (°) | Latest Rain (In) | Soil Moist (%) | Soil Temp (°F) | Daily Rain (In) | Daily Min Temp (°F) | Daily Max Temp (°F) | Daily Max Wind (mph) |
|---|---|---|---|---|---|---|---|---|---|---|---|---|---|---|---|---|
| Hobart Mills | 5/4/26 | 0150 | 36.9 4.2 | 99 0 | 36.7 4.2 | 0.9 0.2 | SE | 124 | 2.6 0.4 | E | 96 | 0.00 | - | 32.0 0.0 | 0.00 | 36.6 4.4 | 37.0 4.3 | 2.6 0.5 |
| Prosser Dam | 5/4/26 | 0150 | 39.2 3.0 | 97 1 | 38.3 3.1 | 1.1 0.5 | WNW | 295 | 2.9 0.9 | NW | 309 | 0.00 | 20.8 0.3 | 49.1 0.0 | 0.00 | 39.1 2.4 | 39.6 3.1 | 4.3 0.4 |
| West Incline Village | 5/4/26 | 0150 | 37.7 7.5 | 91 22 | 35.3 0.4 | 2.4 0.1 | NE | 40 | 3.6 2.9 | NE | 50 | 0.00 | 30.8 0.1 | 44.6 0.1 | 0.00 | 37.3 7.4 | 39.0 7.3 | 5.1 1.4 |
| Incline Village (Fairview Blvd) | 5/4/26 | 0150 | 39.1 10.1 | 89 32 | 36.3 1.5 | 0.0 0.3 | N | 0 | 0.0 3.5 | NNE | 19 | 0.00 | 25.8 1.6 | 51.9 0.2 | 0.00 | 39.0 9.6 | 40.0 9.7 | 2.9 1.6 |
| Incline Village (Diamond Peak) | 5/4/26 | 0150 | 38.0 10.3 | 86 32 | 34.3 1.5 | 0.0 2.5 | N | 0 | 0.0 5.6 | WNW | 300 | 0.00 | 8.4 0.1 | 45.1 0.7 | 0.00 | 38.0 10.3 | 38.3 10.3 | 0.0 7.8 |
| Incline Village (Mill Creek) | 5/4/26 | 0150 | 39.4 12.0 | 90 38 | 36.9 2.1 | 0.9 0.6 | ENE | 60 | 3.2 3.8 | ENE | 72 | 0.00 | 9.7 0.1 | 46.3 0.4 | 0.00 | 39.3 11.6 | 41.1 10.8 | 5.0 2.1 |
| Incline Village (Lakeshore Blvd) | 5/4/26 | 0150 | 40.1 10.2 | 94 32 | 38.7 0.9 | 1.2 1.2 | NNE | 30 | 2.1 2.1 | NE | 56 | 0.00 | 34.6 1.4 | 51.4 0.8 | 0.00 | 40.1 10.2 | 41.7 11.3 | 2.6 1.1 |
| Glenbrook | 5/4/26 | 0150 | 40.5 6.5 | 92 15 | 38.4 1.8 | 0.5 0.3 | SE | 128 | 2.2 0.1 | SSE | 150 | 0.00 | 44.3 0.0 | 45.2 0.3 | 0.00 | 40.2 6.7 | 40.8 7.5 | 2.6 1.9 |
| Zephyr Cove | 5/4/26 | 0140 | 41.3 6.4 | 88 17 | 38.2 0.7 | 0.0 0.1 | N | 0 | 0.0 1.1 | SSE | 158 | 0.00 | - | 34.3 0.0 | 0.00 | 41.2 6.3 | 41.6 7.0 | 0.0 1.1 |
| Kingsbury Grade | 5/4/26 | 0150 | 39.5 8.7 | 94 31 | 37.8 1.7 | 0.0 3.0 | N | 0 | 0.0 7.6 | W | 280 | 0.00 | 5.4 0.4 | 53.1 2.7 | 0.00 | 39.0 8.9 | 39.7 9.3 | 0.0 10.4 |
| South Daggett Pass (Ridge) | 5/4/26 | 0150 | 37.4 8.4 | 98 31 | 36.8 1.5 | 3.6 1.1 | WNW | 284 | 14.0 8.4 | W | 275 | 0.00 | 6.5 0.1 | 48.5 0.4 | 0.00 | 37.3 8.2 | 37.5 8.7 | 14.0 4.2 |
| Palomino Valley | 5/4/26 | 0150 | 49.0 7.2 | 63 3 | 36.9 5.4 | 0.0 5.7 | N | 0 | 0.0 7.5 | SE | 143 | 0.00 | 6.8 0.0 | 64.1 0.1 | 0.00 | 47.8 6.4 | 50.7 6.1 | 1.0 6.5 |
| East Cold Springs | 5/4/26 | 0150 | 45.5 5.1 | 74 3 | 37.5 3.8 | 11.2 10.5 | WSW | 251 | 15.3 12.1 | WSW | 246 | 0.00 | 1.5 0.0 | 55.7 0.2 | 0.00 | 44.0 4.4 | 45.7 5.4 | 15.3 8.9 |
| Peavine | 5/4/26 | 0150 | 42.2 5.4 | 73 2 | 34.0 5.9 | 4.2 0.4 | SSW | 206 | 6.5 1.7 | SW | 228 | 0.00 | - | 53.4 0.0 | 0.00 | 41.4 4.7 | 45.6 5.3 | 7.0 2.1 |
| West Verdi Peak | 5/4/26 | 0150 | 45.9 0.1 | 61 15 | 33.3 5.3 | 2.1 1.9 | SSE | 153 | 7.3 5.6 | SE | 135 | 0.00 | 16.3 0.3 | 51.0 0.2 | 0.00 | 42.8 1.8 | 46.6 3.6 | 11.8 8.1 |
| West Verdi | 5/4/26 | 0150 | 46.0 3.8 | 75 3 | 38.7 4.7 | 5.8 1.4 | WNW | 287 | 9.2 2.7 | W | 266 | 0.00 | 7.8 0.0 | 60.1 0.9 | 0.00 | 45.0 3.1 | 47.0 3.7 | 9.2 1.2 |
| South Verdi | 5/4/26 | 0150 | 48.4 0.2 | 63 19 | 36.5 6.4 | 20.8 15.2 | WSW | 248 | 25.5 18.3 | WSW | 248 | 0.00 | 16.2 0.3 | 55.8 2.5 | 0.00 | 47.7 0.5 | 49.0 5.1 | 27.3 1.5 |
| Northwest Reno | 5/4/26 | 0150 | 49.1 5.5 | 63 1 | 36.9 4.5 | 4.4 3.1 | SW | 225 | 7.6 6.3 | S | 178 | 0.00 | 24.0 0.3 | 61.9 1.2 | 0.00 | 48.6 2.0 | 52.3 4.6 | 18.1 2.0 |
| North Lawton | 5/4/26 | 0150 | 48.4 1.6 | 65 15 | 37.0 6.8 | 8.9 5.8 | W | 266 | 13.0 6.8 | WSW | 257 | 0.00 | - | 39.1 0.0 | 0.00 | 48.0 1.8 | 49.0 2.6 | 20.1 10.2 |
| West Reno (Mogul) | 5/4/26 | 0150 | 48.5 2.3 | 64 12 | 37.0 6.5 | 0.3 5.3 | SE | 125 | 5.0 3.6 | SSE | 166 | 0.00 | 38.6 0.2 | 61.1 0.2 | 0.00 | 47.2 2.9 | 48.7 2.6 | 10.1 1.5 |
| Caughlin (Hunter Lake Trail) | 9/16/25 | 0800 | 59.7 3.5 | 41 11 | 35.9 2.7 | 0.0 0.0 | N | 0 | 0.0 0.0 | ENE | 66 | 0.00 | 15.7 0.0 | 69.8 0.5 | 0.00 | 55.7 3.2 | 67.7 9.1 | 9.4 0.9 |
| ArrowCreek | 5/4/26 | 0150 | 48.6 6.0 | 64 5 | 37.0 3.5 | 0.0 8.0 | N | 0 | 0.0 10.6 | NW | 324 | 0.00 | - | 32.0 0.0 | 0.00 | 48.3 4.3 | 50.3 4.5 | 7.3 3.2 |
| Tracy | 5/4/26 | 0150 | 53.2 3.2 | 57 5 | 38.6 5.3 | 9.8 1.2 | W | 261 | 13.9 3.4 | W | 261 | 0.00 | 8.0 0.0 | 63.9 0.1 | 0.00 | 53.1 1.8 | 54.0 3.0 | 16.5 6.0 |
| Virginia Highlands | 5/4/26 | 0150 | 45.3 5.1 | 67 5 | 35.1 3.1 | 0.0 0.6 | N | 0 | 0.0 6.2 | ESE | 122 | 0.00 | 7.2 0.0 | 56.9 0.3 | 0.00 | 45.0 3.4 | 47.1 3.9 | 7.9 1.7 |
| Virginia City | 5/4/26 | 0150 | 45.1 8.1 | 63 14 | 33.3 1.3 | 7.7 5.4 | SSW | 193 | 11.3 6.8 | S | 185 | 0.00 | 8.4 0.1 | 55.5 0.1 | 0.00 | 45.0 7.4 | 46.0 7.4 | 16.8 11.9 |
| Six Mile Canyon | 9/9/25 | 0630 | 60.2 9.6 | 37 6 | 33.7 4.8 | 4.1 2.5 | W | 277 | 6.1 2.9 | WNW | 286 | 0.00 | 12.5 0.0 | 75.5 0.7 | 0.00 | 57.9 7.6 | 64.4 1.9 | 7.0 3.9 |
| Mt Rose Highway | 4/30/26 | 0510 | 40.8 4.7 | 47 13 | 22.3 1.3 | 2.3 0.2 | WSW | 243 | 4.8 2.1 | WSW | 246 | 0.00 | 24.1 0.3 | 43.0 0.8 | 0.00 | 40.5 4.7 | 43.0 5.3 | 7.7 0.4 |
| Pleasant Valley | 5/4/26 | 0150 | 48.6 3.7 | 69 3 | 38.8 4.7 | 3.2 1.2 | SSW | 205 | 5.1 0.4 | SE | 146 | 0.00 | 2.8 0.0 | 62.7 0.9 | 0.00 | 47.3 4.3 | 49.0 3.7 | 6.6 1.1 |
| New Washoe City | 5/4/26 | 0150 | 48.4 2.4 | 65 8 | 37.1 5.3 | 0.3 5.4 | SSW | 209 | 3.1 7.6 | SW | 232 | 0.00 | 4.5 0.0 | 58.6 0.7 | 0.00 | 46.9 3.4 | 48.6 3.1 | 3.2 7.5 |
| Franktown Creek | 5/4/26 | 0150 | 44.4 4.6 | 81 3 | 39.0 5.5 | 0.3 0.0 | SW | 216 | 2.5 0.6 | S | 191 | 0.00 | 11.2 0.0 | 56.1 0.6 | 0.00 | 44.2 4.5 | 45.6 4.0 | 3.4 1.1 |
| Musgrove Creek | 5/4/26 | 0150 | 46.4 3.4 | 66 4 | 35.5 4.8 | 1.7 1.3 | W | 266 | 5.7 3.4 | SW | 219 | 0.00 | 43.7 4.2 | 53.1 0.4 | 0.00 | 44.8 3.9 | 47.2 3.7 | 5.7 2.1 |
| East Carson | 11/23/24 | 0110 | 28.6 28.4 | - | - | 4.7 11.0 | SW | 220 | 14.7 10.1 | SW | 219 | 0.02 | - | 50.9 0.1 | 0.02 | -25.9 79.1 | 42.9 14.6 | 16.0 10.7 |
| Kings Canyon | 5/4/26 | 0150 | 46.0 4.3 | 70 1 | 36.9 4.3 | 0.8 0.7 | SSE | 162 | 4.2 1.2 | E | 85 | 0.00 | 15.2 0.2 | 56.9 2.1 | 0.00 | 45.7 2.7 | 48.1 3.1 | 5.3 0.9 |
| Carson City (Voltaire Canyon) | 5/4/26 | 0150 | 49.0 5.3 | 66 5 | 38.0 3.0 | 14.6 11.9 | S | 178 | 19.2 15.3 | S | 179 | 0.00 | 2.8 0.0 | 62.3 0.4 | 0.00 | 48.4 4.2 | 50.6 6.0 | 19.2 12.0 |
| Jacks Valley | 5/4/26 | 0150 | 47.1 3.0 | 69 6 | 37.5 5.2 | 1.7 3.1 | E | 92 | 5.2 2.0 | ENE | 64 | 0.00 | 9.6 0.2 | 60.8 3.4 | 0.00 | 46.0 3.7 | 47.8 4.2 | 5.2 2.0 |
| Genoa | 5/4/26 | 0150 | 48.3 3.0 | 74 2 | 40.5 3.7 | 0.3 0.3 | NNE | 27 | 4.2 4.2 | NNE | 16 | 0.00 | 5.5 0.2 | 55.0 5.0 | 0.00 | 48.1 3.1 | 49.4 3.4 | 4.2 4.2 |
| South Genoa (Walleys Hot Springs) | 5/4/26 | 0150 | 49.0 5.0 | 74 4 | 41.0 3.2 | 1.6 5.1 | WNW | 286 | 8.2 3.0 | WNW | 292 | 0.00 | 13.5 0.0 | 63.3 1.3 | 0.00 | 46.2 4.7 | 50.2 4.0 | 8.2 3.0 |
| SW Gardnerville (HWY 88) | 5/4/26 | 0150 | 47.0 5.7 | 77 6 | 40.1 3.5 | 5.6 4.7 | ENE | 64 | 7.0 4.5 | ENE | 66 | 0.00 | 3.4 0.1 | 56.9 1.9 | 0.00 | 45.4 4.4 | 47.9 5.2 | 8.8 0.8 |
| Sheridan | 5/4/26 | 0150 | 47.8 6.0 | 74 11 | 39.7 1.7 | 4.4 0.7 | SSE | 165 | 10.2 4.8 | SSE | 156 | 0.00 | 2.3 0.1 | 59.1 1.8 | 0.00 | 46.0 6.6 | 49.1 5.5 | 10.2 3.1 |
| Ruhenstroth | 5/4/26 | 0150 | 50.5 0.8 | 56 13 | 35.4 6.1 | 6.4 4.6 | SSE | 160 | 11.6 8.4 | SSE | 164 | 0.00 | 12.8 0.1 | 57.4 2.7 | 0.00 | 50.0 1.1 | 51.2 1.4 | 16.5 13.4 |
| Double Spring | 5/4/26 | 0150 | 43.4 2.2 | 73 11 | 35.4 5.8 | 2.0 2.7 | N | 11 | 4.1 3.6 | NW | 324 | 0.00 | 28.5 0.2 | 54.7 3.6 | 0.00 | 41.8 3.4 | 44.1 2.5 | 6.3 1.4 |
| North Topaz Lake | 5/4/26 | 0150 | 47.0 5.3 | 65 2 | 35.7 4.1 | 0.0 0.0 | N | 0 | 0.0 0.0 | NNW | 343 | 0.00 | 8.9 0.1 | 54.7 4.0 | 0.00 | 46.9 4.8 | 51.2 3.3 | 9.9 4.8 |
| Wild Oat Mountain | 5/4/26 | 0150 | 46.8 3.5 | 60 4 | 33.8 4.9 | 0.5 7.2 | NE | 34 | 2.7 8.9 | NNE | 31 | 0.00 | 16.6 0.1 | 58.1 2.5 | 0.00 | 46.6 3.1 | 48.0 2.7 | 5.2 9.8 |
| Smith Valley | 5/4/26 | 0150 | 51.7 3.8 | 51 2 | 34.2 4.7 | 2.4 1.4 | WNW | 303 | 3.4 1.6 | WNW | 285 | 0.00 | 5.9 0.1 | 60.8 2.3 | 0.00 | 49.4 4.6 | 53.1 2.9 | 4.1 2.9 |
| Pine Grove Mountain | 5/4/26 | 0150 | 39.9 5.5 | 59 6 | 26.9 2.4 | 4.8 1.5 | WNW | 284 | 6.0 2.0 | WNW | 288 | 0.00 | 14.5 0.0 | 48.3 3.5 | 0.00 | 39.3 5.9 | 40.1 6.2 | 7.6 1.2 |
| Paradise Hill | 5/4/26 | 0150 | 54.1 2.8 | 42 8 | 31.8 2.7 | 8.6 6.3 | N | 352 | 10.2 2.4 | N | 351 | 0.00 | 8.0 0.0 | 60.1 1.0 | 0.00 | 53.0 1.1 | 60.6 1.8 | 13.0 5.1 |
| Winnemucca | 5/4/26 | 0150 | 51.7 6.4 | 49 15 | 33.4 3.2 | 6.2 0.6 | SSE | 167 | 7.9 1.2 | SSE | 166 | 0.00 | 5.9 0.0 | 59.0 0.5 | 0.00 | 51.0 4.9 | 55.7 2.5 | 8.1 0.4 |
| NE Elko | 5/4/26 | 0150 | 39.0 6.2 | 38 2 | 15.5 4.2 | 1.4 1.3 | S | 176 | 5.0 3.2 | SSW | 194 | 0.00 | 12.5 0.0 | 58.8 0.1 | 0.00 | 37.9 7.1 | 43.9 4.9 | 6.6 1.5 |
| North Elko | 5/4/26 | 0150 | 47.7 10.7 | 39 21 | 24.0 9.1 | 2.1 0.1 | S | 190 | 5.2 2.2 | SSE | 153 | 0.00 | 28.6 0.0 | 57.3 0.9 | 0.00 | 47.2 10.6 | 56.7 2.2 | 11.0 4.1 |
| South Elko | 5/4/26 | 0150 | 54.5 7.2 | 34 8 | 27.0 0.3 | 4.6 3.8 | SSW | 192 | 5.5 2.9 | S | 190 | 0.00 | 18.8 0.1 | 56.7 0.6 | 0.00 | 52.4 4.1 | 92.7 32.2 | 5.5 0.4 |
| Lamoille | 1/28/26 | 1720 | 33.2 0.5 | 65 17 | 22.8 6.3 | 5.8 1.5 | SSE | 166 | 7.7 1.9 | SE | 139 | 0.00 | 12.2 0.0 | 33.4 0.1 | 0.02 | 23.5 2.0 | 36.5 5.9 | 25.6 17.4 |
| Reid Gardner Sub | 5/4/26 | 0150 | 65.7 7.7 | 27 8 | 30.9 15.3 | 4.3 0.5 | W | 274 | 6.0 0.5 | WSW | 246 | 0.00 | 27.5 2.6 | 74.6 0.0 | 0.00 | 64.9 8.0 | 70.8 11.8 | 6.0 0.5 |
| Corn Creek | 5/4/26 | 0150 | 67.8 0.3 | 25 13 | 31.0 16.7 | 7.4 5.2 | ENE | 61 | 11.3 6.8 | ENE | 65 | 0.00 | 4.0 0.0 | 76.4 0.6 | 0.00 | 65.6 1.8 | 69.4 0.3 | 14.0 7.7 |
| Lucky Strike | 5/4/26 | 0150 | 58.7 2.4 | 34 22 | 30.5 22.3 | 10.3 2.0 | SSW | 211 | 17.3 6.1 | SW | 216 | 0.00 | 4.4 0.1 | 67.7 0.2 | 0.00 | 58.5 2.1 | 59.9 2.9 | 21.4 7.4 |
| Lower Angel Peak | 5/4/26 | 0150 | 52.7 3.2 | 44 24 | 31.2 21.3 | 5.1 0.8 | SSE | 150 | 10.2 1.7 | SSW | 195 | 0.00 | 10.3 0.1 | 56.5 0.4 | 0.00 | 52.3 3.1 | 54.4 1.9 | 11.8 1.6 |
| Angel Peak | 5/4/26 | 0150 | 41.3 5.2 | 59 40 | 27.9 21.6 | 16.6 7.6 | SSE | 155 | 26.3 15.9 | SSE | 157 | 0.00 | 3.5 0.0 | 49.8 1.2 | 0.00 | 40.8 5.4 | 42.6 4.5 | 34.5 22.2 |
| Upper Kyle Canyon | 5/4/26 | 0150 | 46.9 2.1 | 45 20 | 26.6 15.6 | 5.8 0.5 | ENE | 61 | 18.5 10.9 | NNE | 24 | 0.00 | 13.8 0.1 | 53.6 1.5 | 0.00 | 46.7 4.2 | 47.8 2.2 | 19.4 11.2 |
| Mt Charleston | 5/4/26 | 0150 | 47.4 0.7 | 47 22 | 28.1 15.5 | 1.4 3.4 | NNE | 33 | 6.1 1.5 | N | 2 | 0.00 | 18.4 0.1 | 48.5 1.0 | 0.00 | 46.8 0.7 | 48.8 0.9 | 13.8 5.7 |
| Mid Kyle Canyon | 5/4/26 | 0150 | 52.0 1.5 | 44 22 | 31.0 17.6 | 2.9 8.7 | ESE | 107 | 5.8 11.6 | ESE | 105 | 0.00 | 7.1 0.1 | 58.4 0.9 | 0.00 | 51.2 2.8 | 54.6 3.3 | 12.3 5.1 |
| Blue Diamond | 5/4/26 | 0150 | 66.0 14.6 | 29 5 | 32.5 17.4 | 6.4 2.5 | WNW | 290 | 10.2 4.2 | WNW | 290 | 0.00 | 3.6 0.0 | 69.8 0.2 | 0.00 | 65.5 15.6 | 67.3 15.1 | 10.9 4.5 |
| Artesian Sub | 5/4/26 | 0150 | 74.9 5.2 | 22 6 | 33.5 12.5 | 7.4 7.4 | SE | 131 | 13.7 12.5 | SSE | 149 | 0.00 | 13.4 0.1 | 73.4 0.1 | 0.00 | 74.8 5.2 | 77.2 5.9 | 13.7 10.1 |
| North Henderson | 5/4/26 | 0150 | 74.9 4.9 | 25 9 | 36.9 15.1 | 10.4 9.6 | SW | 216 | 18.6 17.0 | SSW | 207 | 0.00 | 8.9 0.1 | 79.7 0.3 | 0.00 | 74.6 5.4 | 76.8 4.2 | 18.6 14.5 |
| Sandy Valley | 5/4/26 | 0150 | 62.4 8.1 | 41 28 | 38.6 21.0 | 7.6 5.7 | N | 357 | 10.8 6.1 | N | 354 | 0.00 | 4.6 0.0 | 80.5 1.5 | 0.00 | 62.4 7.3 | 64.2 9.2 | 10.8 3.0 |
| Searchlight | 5/4/26 | 0200 | 61.8 1.7 | 43 25 | 39.0 22.1 | 5.3 1.5 | WNW | 297 | 7.5 2.6 | WNW | 300 | 0.00 | 4.8 0.0 | 76.7 0.0 | 0.00 | 61.5 2.1 | 64.7 0.3 | 8.9 2.7 |
| Laughlin | 5/4/26 | 0150 | 81.4 4.2 | 25 11 | 42.2 18.3 | 15.4 11.4 | S | 178 | 23.1 16.5 | S | 171 | 0.00 | 4.2 0.0 | 85.6 0.6 | 0.00 | 81.1 4.8 | 82.7 2.5 | 25.8 19.2 |
| Max | 81.4 | 99 | 42.2 | 20.8 | - | 26.3 | - | 0.00 | 44.3 | 85.6 | 0.00 | 81.1 | 92.7 | 34.5 | ||
| Avg | 49.1 | 62 | 34.9 | 4.4 | - | 7.8 | - | 0.00 | 13.2 | 57.2 | - | - | - | - | ||
| Min | 36.9 | 22 | 15.5 | 0.0 | - | 0.0 | - | 0.00 | 1.5 | 32.0 | 0.00 | 36.6 | 37.0 | 0.0 |
| Station | Date | Daily Max Temp (°F) | Daily Min Temp (°F) | Daily Max RH (%) | Daily Min RH (%) | Wind Spd (mph) | Wind Dir (°) | Daily Max Wind (mph) | Max Wind Dir (°) | Time of Max Wind | Daily Rain (In) | Weekly Precip (In) | Season Precip (In) | Soil Moist (%) | Fuel Temp (°F) | Fuel Moisture (%) | MinBV Day (V) |
|---|---|---|---|---|---|---|---|---|---|---|---|---|---|---|---|---|---|
| Hobart Mills | 12/23/25 | 51.8 11.3 | 33.9 2.1 | 88 12 | 42 34 | 2.1 1.7 | SW | 224 | 18.4 8.6 | WSW | 240 | 2307 | 0.65 | 6.21 | 15.12 | - | 37.6 2.8 | 42 19 | 8.0 0.7 |
| Prosser Dam | 5/3/26 | 64.2 0.3 | 38.6 5.1 | 99 1 | 35 2 | 2.3 0.0 | SSW | 208 | 31.6 14.3 | SSE | 164 | 1426 | 0.06 | 0.35 | 7.80 | 20.9 0.3 | 48.1 0.6 | 31 11 | 12.6 0.0 |
| West Incline Village | 5/3/26 | 58.5 1.3 | 36.8 5.1 | 98 3 | 34 7 | 2.0 0.4 | E | 85 | 28.7 15.9 | S | 188 | 1408 | 0.20 | 0.39 | 6.90 | 30.6 0.1 | 44.8 5.9 | 40 28 | 12.4 0.0 |
| Incline Village (Fairview Blvd) | 5/3/26 | 60.3 1.7 | 38.6 5.7 | 97 3 | 34 7 | 0.8 0.1 | WNW | 303 | 18.1 8.2 | WSW | 244 | 1415 | 0.19 | 0.30 | 6.48 | 24.7 0.5 | 48.3 4.1 | 21 12 | 12.6 0.1 |
| Incline Village (Diamond Peak) | 5/3/26 | 54.9 1.2 | 36.4 8.8 | 96 18 | 41 9 | 1.1 4.8 | SE | 128 | 19.5 5.7 | S | 176 | 1358 | 0.02 | 0.02 | 0.43 | 8.4 0.1 | - | - | 12.4 0.0 |
| Incline Village (Mill Creek) | 5/3/26 | 59.6 1.0 | 39.1 5.0 | 94 0 | 37 2 | 2.4 1.3 | NNE | 32 | 21.7 6.0 | N | 354 | 1143 | 0.17 | 0.22 | 6.13 | 9.8 0.1 | - | - | 12.4 0.0 |
| Incline Village (Lakeshore Blvd) | 5/3/26 | 63.0 1.8 | 40.8 1.2 | 96 0 | 33 1 | 3.2 2.1 | NE | 46 | 23.7 8.3 | NNE | 32 | 1035 | 0.13 | 0.21 | 6.26 | 34.8 3.1 | 57.2 0.7 | 13 1 | 12.4 0.0 |
| Glenbrook | 5/3/26 | 60.2 1.0 | 40.0 0.4 | 92 7 | 37 3 | 2.8 1.0 | E | 84 | 21.7 0.5 | WSW | 248 | 1410 | 0.10 | 0.28 | 4.89 | 44.3 0.0 | 47.6 3.6 | 20 9 | 12.5 0.0 |
| Zephyr Cove | 5/3/26 | 60.1 2.8 | 41.1 2.0 | 89 14 | 38 8 | 0.0 0.3 | N | 0 | 6.1 1.5 | SSW | 211 | 1100 | 0.01 | 0.12 | 0.67 | - | 40.8 7.0 | - | 12.6 0.1 |
| Kingsbury Grade | 5/3/26 | 57.1 4.5 | 38.7 3.1 | 94 18 | 41 13 | 2.6 0.3 | ESE | 112 | 23.8 7.1 | SE | 131 | 1443 | 0.18 | 0.21 | 5.05 | 5.8 0.2 | 48.2 6.0 | 14 8 | 12.5 0.0 |
| South Daggett Pass (Ridge) | 5/3/26 | 53.1 4.9 | 37.2 7.8 | 96 28 | 42 8 | 3.4 1.2 | SSE | 167 | 25.6 6.7 | S | 171 | 1413 | 0.13 | 0.14 | 3.45 | 6.5 0.0 | 44.8 7.0 | 14 7 | 12.5 0.0 |
| Palomino Valley | 5/3/26 | 74.2 0.5 | 48.2 6.4 | 78 0 | 17 1 | 5.9 1.3 | NW | 323 | 45.8 17.1 | SSW | 207 | 1532 | 0.00 | 0.00 | 1.14 | 6.8 0.0 | 59.9 1.6 | 8 4 | 12.5 0.0 |
| East Cold Springs | 5/3/26 | 68.0 2.1 | 44.0 4.1 | 82 1 | 24 3 | 7.9 3.2 | W | 273 | 38.4 19.8 | SW | 223 | 1519 | 0.00 | 0.07 | 1.48 | 1.5 0.0 | 53.6 1.0 | 21 7 | 12.6 0.0 |
| Peavine | 5/3/26 | 63.9 0.4 | 41.9 3.4 | 80 5 | 26 0 | 6.5 1.5 | SSW | 207 | 53.2 30.7 | SSW | 205 | 1505 | 0.01 | 0.03 | 1.50 | - | - | - | 12.5 0.1 |
| West Verdi Peak | 5/3/26 | 65.0 3.5 | 40.9 3.7 | 90 3 | 28 3 | 2.4 0.6 | WNW | 284 | 26.8 10.8 | SSE | 164 | 1451 | 0.07 | 0.11 | 5.71 | 16.4 0.4 | 49.6 1.6 | 22 11 | 12.5 0.1 |
| West Verdi | 5/3/26 | 68.6 1.4 | 44.9 1.8 | 90 2 | 22 5 | 4.1 0.4 | W | 280 | 36.8 17.3 | SSW | 202 | 1502 | 0.15 | 0.15 | 5.42 | 7.8 0.1 | 54.1 0.9 | 19 8 | 12.6 0.0 |
| South Verdi | 5/3/26 | 66.0 0.0 | 45.8 0.0 | 87 4 | 25 2 | 11.5 3.6 | WSW | 248 | 59.0 34.5 | WSW | 248 | 1510 | 0.13 | 0.17 | 4.41 | 16.4 0.4 | 53.3 3.1 | 18 6 | 12.6 0.0 |
| Northwest Reno | 5/3/26 | 69.6 1.3 | 48.7 2.9 | 77 2 | 21 1 | 11.3 5.5 | NNW | 342 | 60.1 31.7 | WNW | 283 | 1514 | 0.03 | 0.07 | 1.07 | 24.0 0.4 | - | - | 12.5 0.0 |
| North Lawton | 5/3/26 | 70.9 3.4 | 46.8 2.7 | 85 1 | 22 2 | 7.1 1.8 | W | 276 | 40.2 21.4 | SSW | 213 | 1457 | 0.03 | 0.06 | 1.76 | - | - | - | 12.5 0.0 |
| West Reno (Mogul) | 5/3/26 | 68.9 0.7 | 46.9 1.9 | 84 2 | 22 3 | 5.2 1.0 | W | 277 | 49.7 21.6 | SW | 227 | 1508 | 0.02 | 0.04 | 3.94 | 38.8 0.2 | 56.8 2.0 | 7 3 | 12.5 0.0 |
| Caughlin (Hunter Lake Trail) | 9/15/25 | 78.6 1.3 | 52.5 3.7 | 58 7 | 23 2 | 4.2 2.5 | S | 173 | 13.0 20.5 | NNE | 31 | 1309 | 0.00 | 0.32 | 8.05 | 15.7 0.1 | 67.4 0.5 | 7 1 | 12.7 0.0 |
| ArrowCreek | 5/3/26 | 69.5 1.3 | 47.4 1.5 | 72 2 | 22 0 | 4.5 0.2 | WSW | 247 | 57.0 28.1 | S | 170 | 1447 | 0.19 | 0.20 | 4.76 | - | - | - | 12.4 0.0 |
| Tracy | 5/3/26 | 73.8 0.3 | 51.1 3.1 | 74 7 | 17 2 | 6.9 2.5 | W | 265 | 47.8 24.6 | SSW | 204 | 1508 | 0.00 | 0.00 | 0.86 | 8.0 0.0 | 62.2 1.2 | 8 2 | 12.6 0.0 |
| Virginia Highlands | 5/3/26 | 65.1 0.1 | 44.7 3.3 | 74 12 | 25 4 | 4.1 0.1 | WSW | 244 | 41.1 12.9 | S | 189 | 1436 | 0.00 | 0.03 | 1.74 | 7.2 0.0 | 53.6 1.9 | 13 4 | 12.6 0.0 |
| Virginia City | 5/3/26 | 63.8 0.4 | 45.3 5.7 | 71 6 | 26 6 | 5.2 0.6 | NNW | 341 | 46.7 9.6 | S | 190 | 1425 | 0.00 | 0.00 | 1.45 | 8.4 0.1 | 54.1 0.8 | 7 2 | 12.6 0.0 |
| Six Mile Canyon | 9/8/25 | 98.8 16.5 | 50.2 7.6 | 44 3 | 11 1 | 7.2 0.3 | WSW | 252 | 27.0 4.6 | SSE | 159 | 1325 | 0.00 | 0.00 | 0.89 | 12.6 0.1 | 69.7 3.0 | 4 0 | 12.4 0.2 |
| Mt Rose Highway | 4/29/26 | 56.6 7.9 | 35.6 4.1 | 63 16 | 31 6 | 2.2 0.0 | NW | 305 | 10.8 4.2 | NE | 35 | 1152 | 0.00 | 0.08 | 4.93 | 24.3 0.3 | 47.6 8.0 | 3 0 | 12.4 0.0 |
| Pleasant Valley | 5/3/26 | 71.1 2.2 | 45.9 0.1 | 85 5 | 24 1 | 4.5 0.8 | SW | 230 | 44.7 19.2 | SSE | 154 | 1434 | 0.05 | 0.10 | 2.13 | 2.8 0.0 | 58.2 1.3 | 17 7 | 12.6 0.0 |
| New Washoe City | 5/3/26 | 68.1 0.6 | 44.2 1.9 | 80 2 | 24 1 | 4.6 0.7 | NNE | 27 | 36.6 8.4 | S | 191 | 1434 | 0.00 | 0.01 | 1.32 | 4.5 0.0 | 54.4 3.4 | 11 4 | 12.6 0.0 |
| Franktown Creek | 5/3/26 | 67.2 0.2 | 44.1 1.1 | 87 7 | 28 1 | 2.0 0.2 | NW | 318 | 28.6 5.6 | SW | 236 | 1430 | 0.06 | 0.08 | 5.41 | 11.2 0.0 | 52.3 3.7 | 17 8 | 12.6 0.0 |
| Musgrove Creek | 5/3/26 | 64.0 0.5 | 43.1 4.0 | 80 8 | 32 9 | 2.0 0.6 | SW | 221 | 24.3 11.7 | SSW | 205 | 1409 | 0.29 | 0.34 | 7.37 | 41.3 2.1 | 50.5 5.2 | 27 13 | 12.5 0.0 |
| East Carson | 11/22/24 | 63.8 0.3 | 41.7 4.6 | 85 21 | 21 9 | 14.9 6.0 | SW | 224 | 46.6 12.7 | S | 171 | 1835 | 0.05 | 0.05 | 4.48 | 2.5 0.0 | 53.9 0.3 | 9 0 | 12.6 0.0 |
| Kings Canyon | 5/3/26 | 65.4 2.5 | 45.1 0.7 | 79 1 | 31 3 | 3.6 0.2 | SSW | 206 | 29.1 6.6 | SW | 221 | 1422 | 0.04 | 0.06 | 3.92 | 15.3 0.1 | 53.5 4.9 | 13 7 | 12.6 0.0 |
| Carson City (Voltaire Canyon) | 5/3/26 | 67.3 2.7 | 49.2 1.6 | 81 11 | 25 0 | 7.9 0.4 | SW | 228 | 64.8 36.8 | S | 169 | 1421 | 1.22 | 1.22 | 1.31 | 2.8 0.0 | - | - | 12.6 0.0 |
| Jacks Valley | 5/3/26 | 67.0 2.0 | 46.1 0.8 | 84 5 | 27 2 | 4.1 0.6 | W | 280 | 35.5 10.1 | S | 190 | 1421 | 0.03 | 0.05 | 2.02 | 9.7 0.2 | 53.0 5.5 | 15 8 | 12.6 0.0 |
| Genoa | 5/3/26 | 68.0 3.9 | 46.9 0.7 | 89 8 | 28 4 | 0.5 0.1 | E | 81 | 19.6 8.9 | S | 188 | 1411 | 0.04 | 0.05 | 4.79 | 5.6 0.2 | 53.8 6.4 | 18 9 | 12.3 0.0 |
| South Genoa (Walleys Hot Springs) | 5/3/26 | 67.3 4.8 | 46.2 3.3 | 95 11 | 26 2 | 3.6 0.1 | SW | 236 | 37.0 15.4 | S | 176 | 1444 | 0.05 | 0.05 | 3.00 | 13.6 0.1 | 54.6 5.9 | 13 6 | 12.5 0.0 |
| SW Gardnerville (HWY 88) | 5/3/26 | 65.0 5.5 | 44.0 1.9 | 94 12 | 27 1 | 4.4 0.2 | SSW | 205 | 48.1 22.7 | S | 185 | 1400 | 0.02 | 0.03 | 0.59 | 3.4 0.0 | 51.6 4.3 | 21 10 | 12.4 0.0 |
| Sheridan | 5/3/26 | 66.6 5.5 | 44.9 0.9 | 83 11 | 30 6 | 3.8 0.1 | W | 260 | 38.6 15.0 | SSW | 192 | 1410 | 0.13 | 0.13 | 3.19 | 2.4 0.1 | 53.5 5.4 | 14 7 | 12.5 0.0 |
| Ruhenstroth | 5/3/26 | 64.1 6.6 | 45.5 0.5 | 82 11 | 33 11 | 4.4 1.1 | S | 170 | 44.6 22.2 | S | 182 | 1353 | 0.02 | 0.02 | 1.44 | 12.9 0.2 | 51.8 6.1 | 20 12 | 12.6 0.0 |
| Double Spring | 5/3/26 | 58.2 7.4 | 40.8 1.2 | 91 5 | 35 10 | 3.8 0.1 | N | 350 | 32.5 11.6 | SW | 215 | 1343 | 0.21 | 0.33 | 1.87 | 28.6 0.2 | 47.3 7.0 | 27 19 | 12.6 0.0 |
| North Topaz Lake | 5/3/26 | 61.1 6.8 | 46.2 5.4 | 78 13 | 34 9 | 3.5 0.9 | W | 276 | 32.3 10.2 | SSW | 206 | 1349 | 0.08 | 0.13 | 1.22 | 9.0 0.1 | 50.2 8.5 | 21 14 | 12.6 0.0 |
| Wild Oat Mountain | 5/3/26 | 58.8 6.9 | 45.2 4.5 | 78 10 | 33 8 | 4.3 0.3 | NW | 316 | 36.5 12.3 | SW | 235 | 1336 | 0.05 | 0.05 | 1.30 | 16.6 0.1 | 50.6 6.9 | 13 7 | 12.6 0.0 |
| Smith Valley | 5/3/26 | 67.9 4.7 | 47.4 1.9 | 72 11 | 26 5 | 4.6 0.4 | WNW | 290 | 38.1 17.9 | S | 178 | 1348 | 0.01 | 0.01 | 0.87 | 5.9 0.1 | 54.7 5.2 | 9 3 | 12.6 0.0 |
| Pine Grove Mountain | 5/3/26 | 53.4 5.3 | 34.8 9.8 | 93 30 | 35 15 | 6.0 1.8 | NNE | 17 | 41.9 17.4 | ESE | 119 | 1314 | 0.10 | 0.12 | 0.46 | 14.5 0.0 | 44.1 8.1 | 11 6 | 12.6 0.1 |
| Paradise Hill | 5/3/26 | 76.3 1.8 | 45.6 6.7 | 53 0 | 13 3 | 7.1 2.7 | NE | 56 | 30.7 10.8 | S | 173 | 1434 | 0.00 | 0.00 | 2.33 | 8.0 0.0 | 67.8 5.1 | 6 0 | 12.6 0.0 |
| Winnemucca | 5/3/26 | 74.7 1.0 | 51.8 10.7 | 47 4 | 16 1 | 6.4 1.7 | ENE | 72 | 23.4 3.4 | SE | 126 | 1505 | 0.00 | 0.00 | 2.90 | 5.9 0.0 | 66.0 1.7 | 2 0 | 12.6 0.0 |
| NE Elko | 5/3/26 | 71.7 0.2 | 40.4 11.8 | 43 7 | 13 3 | 2.8 0.0 | E | 100 | 29.2 12.4 | ESE | 117 | 1307 | 0.00 | 0.00 | 2.29 | 12.5 0.0 | 58.4 4.2 | 3 0 | 12.6 0.0 |
| North Elko | 5/3/26 | 70.1 0.4 | 49.4 7.0 | 32 1 | 14 3 | 4.0 0.6 | NNE | 31 | 19.1 0.8 | NE | 52 | 1358 | 0.00 | 0.00 | 2.04 | 28.5 0.0 | 62.4 2.8 | 3 0 | 12.6 0.0 |
| South Elko | 5/3/26 | - | 49.9 3.5 | 100 10 | 16 1 | 3.8 1.3 | ESE | 109 | 15.5 4.6 | S | 175 | 1636 | 0.00 | 0.00 | 2.67 | 18.9 0.1 | 60.1 3.6 | 3 0 | 12.6 0.0 |
| Lamoille | 1/27/26 | 42.4 2.7 | 21.5 6.4 | 60 0 | 25 6 | 2.6 0.5 | SE | 125 | 8.2 4.1 | SE | 139 | 0137 | 0.00 | 0.00 | 0.67 | 12.3 0.2 | 26.9 1.3 | 11 0 | 8.5 2.8 |
| Reid Gardner Sub | 5/3/26 | 93.0 4.5 | 48.3 4.4 | 34 2 | 9 1 | 5.1 2.6 | SSW | 208 | 30.1 16.4 | SSW | 205 | 1622 | 0.00 | 0.00 | 0.56 | 25.2 0.2 | 78.2 2.1 | 1 0 | 12.6 0.0 |
| Corn Creek | 5/3/26 | 83.6 2.1 | 61.8 4.8 | 25 4 | 11 3 | 7.2 0.2 | SE | 133 | 44.0 18.1 | NE | 50 | 1442 | 0.00 | 0.00 | 0.63 | 4.0 0.0 | 73.9 0.9 | 1 0 | 12.5 0.0 |
| Lucky Strike | 5/3/26 | 70.2 1.5 | 56.6 2.2 | 34 14 | 11 1 | 10.0 1.5 | S | 172 | 41.1 16.2 | SE | 139 | 1510 | 0.00 | 0.00 | 1.21 | 4.4 0.0 | 66.1 1.1 | 2 0 | 12.6 0.0 |
| Lower Angel Peak | 5/3/26 | 65.5 1.4 | 45.9 3.9 | 44 11 | 16 2 | 5.7 0.8 | SE | 144 | 31.6 8.3 | SE | 145 | 1357 | 0.00 | 0.00 | 1.93 | 10.4 0.1 | 58.1 0.9 | 2 0 | 12.6 0.0 |
| Angel Peak | 5/3/26 | 55.5 1.9 | 41.8 1.7 | 60 27 | 18 0 | 17.4 7.6 | SSE | 163 | 50.3 24.8 | SE | 138 | 1357 | 0.01 | 0.01 | 84.71 | 3.5 0.0 | 49.4 0.6 | 5 0 | 12.5 0.0 |
| Upper Kyle Canyon | 5/3/26 | 57.9 1.0 | 42.1 4.5 | 51 15 | 23 8 | 5.7 0.9 | ENE | 63 | 30.4 11.8 | ESE | 121 | 1356 | 0.00 | 0.00 | 5.08 | 13.8 0.0 | 50.0 4.6 | 7 0 | 12.7 0.1 |
| Mt Charleston | 5/3/26 | 58.4 0.5 | 44.2 4.5 | 50 11 | 23 7 | 3.6 0.8 | ENE | 58 | 26.6 10.3 | E | 92 | 1038 | 0.00 | 0.00 | 5.28 | 18.4 0.1 | 54.0 2.4 | 28 0 | 12.6 0.0 |
| Mid Kyle Canyon | 5/3/26 | 65.9 1.9 | 47.3 4.3 | 42 10 | 17 2 | 8.9 0.2 | SSW | 210 | 33.4 12.0 | SSE | 161 | 1739 | 0.00 | 0.00 | 2.08 | 7.1 0.0 | 60.5 2.4 | 5 0 | 12.8 0.1 |
| Blue Diamond | 5/3/26 | 81.9 2.9 | 46.2 0.8 | 30 3 | 10 2 | 6.5 2.6 | W | 264 | 28.0 11.2 | WNW | 285 | 1814 | 0.00 | 0.00 | 0.85 | 3.5 0.0 | - | 3 0 | 12.7 0.0 |
| Artesian Sub | 5/3/26 | 93.0 5.0 | 62.9 0.1 | 23 3 | 10 4 | 3.7 2.5 | SSE | 155 | 25.2 11.3 | SE | 138 | 1527 | 0.00 | 0.00 | 0.35 | 13.4 0.1 | - | 0 0 | 12.7 0.0 |
| North Henderson | 5/3/26 | 92.3 4.5 | 62.2 2.8 | 32 5 | 10 3 | 6.7 3.9 | S | 191 | 32.5 15.9 | S | 184 | 1512 | 0.00 | 0.00 | 0.52 | 8.9 0.1 | 82.1 1.6 | 4 0 | 12.7 0.0 |
| Sandy Valley | 5/3/26 | 86.6 2.7 | 54.4 10.8 | 38 20 | 12 3 | 8.1 0.8 | SSW | 192 | 31.4 3.6 | SE | 134 | 1139 | 0.00 | 0.00 | 0.62 | 4.6 0.0 | 76.4 2.7 | 3 0 | 12.7 0.0 |
| Searchlight | 5/3/26 | 83.1 2.0 | 56.7 2.6 | 34 14 | 14 5 | 9.4 2.8 | S | 176 | 35.2 12.4 | SSE | 163 | 1427 | 0.00 | 0.00 | 0.51 | 4.7 0.0 | 75.7 1.0 | 0 0 | 12.6 0.0 |
| Laughlin | 5/3/26 | 96.9 2.2 | 68.7 3.5 | 28 5 | 11 3 | 9.8 2.6 | S | 190 | 35.4 14.5 | SSE | 157 | 1502 | 0.00 | 0.00 | 0.29 | 4.2 0.0 | 85.7 0.3 | 3 0 | 12.8 0.0 |
| Max | 96.9 | 68.7 | 100 | 42 | 17.4 | - | 64.8 | - | - | 1.22 | - | 84.71 | 44.3 | 85.7 | 40 | 12.8 | |
| Avg | - | - | - | - | 5.1 | - | - | - | - | - | - | - | 13.1 | 56.7 | 12 | - | |
| Min | 53.1 | 34.8 | 23 | 9 | 0.0 | - | 6.1 | - | - | 0.00 | - | 0.29 | 1.5 | 40.8 | 0 | 12.3 |